Terminal Aerodrome Forecast
Issued by NWS Nashville, TN

Home | Current Version | Previous Version | Text Only | Print | Product List | Glossary On
Versions: 1 2 3 4 5 6 7 8 9 10 11 12 13 14 15 16 17 18 19 20 21
000
FTUS44 KOHX 052205 AAC
TAFBNA
TAF AMD
KBNA 052205Z 0522/0618 32012G18KT P6SM BKN040
     FM060000 33009KT P6SM BKN050
     FM060200 33009KT P6SM SKC
     FM061600 35010G17KT P6SM SCT250=

USA.gov is the U.S. government's official web portal to all federal, state and local government web resources and services.